sensor_id;sensor_type;location;lat;lon;timestamp;pressure;altitude;pressure_sealevel;temperature;humidity
11542;BME280;5827;49.482;7.716;2023-04-08T00:00:49;99179.03;;;8.79;100.00
11542;BME280;5827;49.482;7.716;2023-04-08T00:02:52;99182.09;;;8.82;100.00
11542;BME280;5827;49.482;7.716;2023-04-08T00:04:53;99179.03;;;8.79;100.00
11542;BME280;5827;49.482;7.716;2023-04-08T00:06:55;99181.13;;;8.77;100.00
11542;BME280;5827;49.482;7.716;2023-04-08T00:08:56;99178.06;;;8.73;100.00
11542;BME280;5827;49.482;7.716;2023-04-08T00:10:58;99177.41;;;8.78;100.00
11542;BME280;5827;49.482;7.716;2023-04-08T00:12:59;99181.50;;;8.80;100.00
11542;BME280;5827;49.482;7.716;2023-04-08T00:15:01;99178.84;;;8.80;100.00
11542;BME280;5827;49.482;7.716;2023-04-08T00:17:03;99179.41;;;8.82;100.00
11542;BME280;5827;49.482;7.716;2023-04-08T00:19:06;99182.84;;;8.71;100.00
11542;BME280;5827;49.482;7.716;2023-04-08T00:21:07;99183.81;;;8.77;100.00
11542;BME280;5827;49.482;7.716;2023-04-08T00:23:09;99189.72;;;8.79;100.00
11542;BME280;5827;49.482;7.716;2023-04-08T00:25:10;99190.91;;;8.64;100.00
11542;BME280;5827;49.482;7.716;2023-04-08T00:27:12;99183.38;;;8.80;100.00
11542;BME280;5827;49.482;7.716;2023-04-08T00:29:13;99184.75;;;8.82;100.00
11542;BME280;5827;49.482;7.716;2023-04-08T00:31:15;99183.38;;;8.80;100.00
11542;BME280;5827;49.482;7.716;2023-04-08T00:33:16;99187.06;;;8.79;100.00
11542;BME280;5827;49.482;7.716;2023-04-08T00:35:19;99183.41;;;8.73;100.00
11542;BME280;5827;49.482;7.716;2023-04-08T00:37:21;99182.75;;;8.78;100.00
11542;BME280;5827;49.482;7.716;2023-04-08T00:39:24;99180.53;;;8.75;100.00
11542;BME280;5827;49.482;7.716;2023-04-08T00:41:25;99180.97;;;8.72;100.00
11542;BME280;5827;49.482;7.716;2023-04-08T00:43:27;99178.88;;;8.74;100.00
11542;BME280;5827;49.482;7.716;2023-04-08T00:45:28;99183.56;;;8.78;100.00
11542;BME280;5827;49.482;7.716;2023-04-08T00:47:30;99181.03;;;8.83;100.00
11542;BME280;5827;49.482;7.716;2023-04-08T00:49:32;99173.53;;;8.74;100.00
11542;BME280;5827;49.482;7.716;2023-04-08T00:51:35;99178.88;;;8.74;100.00
11542;BME280;5827;49.482;7.716;2023-04-08T00:53:36;99178.88;;;8.74;100.00
11542;BME280;5827;49.482;7.716;2023-04-08T00:55:38;99182.06;;;8.64;100.00
11542;BME280;5827;49.482;7.716;2023-04-08T00:57:39;99187.38;;;8.71;100.00
11542;BME280;5827;49.482;7.716;2023-04-08T00:59:42;99188.47;;;8.38;100.00
11542;BME280;5827;49.482;7.716;2023-04-08T01:01:49;99185.41;;;8.59;100.00
11542;BME280;5827;49.482;7.716;2023-04-08T01:03:57;99189.28;;;8.63;100.00
11542;BME280;5827;49.482;7.716;2023-04-08T01:06:06;99193.94;;;8.68;100.00
11542;BME280;5827;49.482;7.716;2023-04-08T01:08:12;99181.66;;;8.67;100.00
11542;BME280;5827;49.482;7.716;2023-04-08T01:10:17;99182.38;;;8.74;100.00
11542;BME280;5827;49.482;7.716;2023-04-08T01:12:24;99182.59;;;8.73;100.00
11542;BME280;5827;49.482;7.716;2023-04-08T01:14:27;99181.41;;;8.69;100.00
11542;BME280;5827;49.482;7.716;2023-04-08T01:16:29;99186.38;;;8.65;100.00
11542;BME280;5827;49.482;7.716;2023-04-08T01:18:32;99177.78;;;8.63;100.00
11542;BME280;5827;49.482;7.716;2023-04-08T01:20:36;99176.97;;;8.62;100.00
11542;BME280;5827;49.482;7.716;2023-04-08T01:22:45;99182.72;;;8.59;100.00
11542;BME280;5827;49.482;7.716;2023-04-08T01:25:00;99177.53;;;8.64;100.00
11542;BME280;5827;49.482;7.716;2023-04-08T01:27:05;99175.53;;;8.60;100.00
11542;BME280;5827;49.482;7.716;2023-04-08T01:29:09;99180.44;;;8.63;100.00
11542;BME280;5827;49.482;7.716;2023-04-08T01:31:13;99180.06;;;8.59;100.00
11542;BME280;5827;49.482;7.716;2023-04-08T01:33:16;99179.38;;;8.46;100.00
11542;BME280;5827;49.482;7.716;2023-04-08T01:35:18;99183.78;;;8.58;100.00
11542;BME280;5827;49.482;7.716;2023-04-08T01:37:21;99174.72;;;8.59;100.00
11542;BME280;5827;49.482;7.716;2023-04-08T01:39:22;99179.84;;;8.61;100.00
11542;BME280;5827;49.482;7.716;2023-04-08T01:41:25;99178.06;;;8.55;100.00
11542;BME280;5827;49.482;7.716;2023-04-08T01:43:30;99185.41;;;8.59;100.00
11542;BME280;5827;49.482;7.716;2023-04-08T01:45:33;99185.84;;;8.56;100.00
11542;BME280;5827;49.482;7.716;2023-04-08T01:47:34;99184.59;;;8.59;100.00
11542;BME280;5827;49.482;7.716;2023-04-08T01:49:37;99180.50;;;8.56;100.00
11542;BME280;5827;49.482;7.716;2023-04-08T01:51:40;99175.75;;;8.58;100.00
11542;BME280;5827;49.482;7.716;2023-04-08T01:53:41;99176.56;;;8.59;100.00
11542;BME280;5827;49.482;7.716;2023-04-08T01:55:44;99176.34;;;8.60;100.00
11542;BME280;5827;49.482;7.716;2023-04-08T01:57:49;99172.19;;;8.64;100.00
11542;BME280;5827;49.482;7.716;2023-04-08T01:59:55;99171.38;;;8.64;100.00
11542;BME280;5827;49.482;7.716;2023-04-08T02:02:01;99178.19;;;8.60;100.00
11542;BME280;5827;49.482;7.716;2023-04-08T02:04:05;99180.88;;;8.60;100.00
11542;BME280;5827;49.482;7.716;2023-04-08T02:06:07;99177.41;;;8.34;100.00
11542;BME280;5827;49.482;7.716;2023-04-08T02:08:09;99174.28;;;8.62;100.00
11542;BME280;5827;49.482;7.716;2023-04-08T02:10:10;99184.84;;;8.76;100.00
11542;BME280;5827;49.482;7.716;2023-04-08T02:12:12;99181.44;;;8.87;100.00
11542;BME280;5827;49.482;7.716;2023-04-08T02:14:13;99183.66;;;8.90;100.00
11542;BME280;5827;49.482;7.716;2023-04-08T02:16:21;99184.75;;;8.82;100.00
11542;BME280;5827;49.482;7.716;2023-04-08T02:18:25;99189.44;;;8.87;100.00
11542;BME280;5827;49.482;7.716;2023-04-08T02:20:32;99184.16;;;8.62;100.00
11542;BME280;5827;49.482;7.716;2023-04-08T02:22:37;99183.50;;;8.67;100.00
11542;BME280;5827;49.482;7.716;2023-04-08T02:24:40;99187.81;;;8.68;100.00
11542;BME280;5827;49.482;7.716;2023-04-08T02:26:44;99178.97;;;8.67;100.00
11542;BME280;5827;49.482;7.716;2023-04-08T02:28:48;99190.75;;;8.59;100.00
11542;BME280;5827;49.482;7.716;2023-04-08T02:30:51;99188.31;;;8.58;100.00
11542;BME280;5827;49.482;7.716;2023-04-08T02:32:55;99190.75;;;8.59;100.00
11542;BME280;5827;49.482;7.716;2023-04-08T02:35:00;99188.06;;;8.59;100.00
11542;BME280;5827;49.482;7.716;2023-04-08T02:37:03;99189.81;;;8.22;100.00
11542;BME280;5827;49.482;7.716;2023-04-08T02:39:04;99186.19;;;8.42;100.00
11542;BME280;5827;49.482;7.716;2023-04-08T02:41:06;99196.34;;;8.51;100.00
11542;BME280;5827;49.482;7.716;2023-04-08T02:43:07;99190.81;;;8.53;100.00
11542;BME280;5827;49.482;7.716;2023-04-08T02:45:09;99190.97;;;8.58;100.00
11542;BME280;5827;49.482;7.716;2023-04-08T02:47:10;99196.50;;;8.56;100.00
11542;BME280;5827;49.482;7.716;2023-04-08T02:49:13;99196.59;;;8.50;100.00
11542;BME280;5827;49.482;7.716;2023-04-08T02:51:15;99193.41;;;8.59;100.00
11542;BME280;5827;49.482;7.716;2023-04-08T02:53:16;99200.72;;;8.71;100.00
11542;BME280;5827;49.482;7.716;2023-04-08T02:55:18;99201.53;;;8.71;100.00
11542;BME280;5827;49.482;7.716;2023-04-08T02:57:21;99199.06;;;8.70;100.00
11542;BME280;5827;49.482;7.716;2023-04-08T02:59:22;99194.50;;;8.77;100.00
11542;BME280;5827;49.482;7.716;2023-04-08T03:01:24;99192.47;;;8.72;100.00
11542;BME280;5827;49.482;7.716;2023-04-08T03:03:25;99187.03;;;8.60;100.00
11542;BME280;5827;49.482;7.716;2023-04-08T03:05:30;99186.69;;;8.57;100.00
11542;BME280;5827;49.482;7.716;2023-04-08T03:07:31;99184.06;;;8.50;100.00
11542;BME280;5827;49.482;7.716;2023-04-08T03:09:33;99181.34;;;8.57;100.00
11542;BME280;5827;49.482;7.716;2023-04-08T03:11:34;99195.44;;;8.64;100.00
11542;BME280;5827;49.482;7.716;2023-04-08T03:13:36;99186.84;;;8.62;100.00
11542;BME280;5827;49.482;7.716;2023-04-08T03:15:37;99193.41;;;8.59;100.00
11542;BME280;5827;49.482;7.716;2023-04-08T03:17:39;99189.69;;;8.60;100.00
11542;BME280;5827;49.482;7.716;2023-04-08T03:19:40;99193.34;;;8.48;100.00
11542;BME280;5827;49.482;7.716;2023-04-08T03:21:43;99193.41;;;8.59;100.00
11542;BME280;5827;49.482;7.716;2023-04-08T03:23:45;99191.34;;;8.61;100.00
11542;BME280;5827;49.482;7.716;2023-04-08T03:25:46;99191.84;;;8.95;100.00
11542;BME280;5827;49.482;7.716;2023-04-08T03:27:48;99195.22;;;9.02;100.00
11542;BME280;5827;49.482;7.716;2023-04-08T03:29:50;99198.75;;;9.03;100.00
11542;BME280;5827;49.482;7.716;2023-04-08T03:31:52;99196.28;;;9.01;100.00
11542;BME280;5827;49.482;7.716;2023-04-08T03:33:53;99197.50;;;8.62;100.00
11542;BME280;5827;49.482;7.716;2023-04-08T03:35:55;99199.16;;;8.63;100.00
11542;BME280;5827;49.482;7.716;2023-04-08T03:37:58;99196.47;;;8.63;100.00
11542;BME280;5827;49.482;7.716;2023-04-08T03:39:59;99198.72;;;8.66;100.00
11542;BME280;5827;49.482;7.716;2023-04-08T03:42:01;99198.09;;;8.64;100.00
11542;BME280;5827;49.482;7.716;2023-04-08T03:44:02;99193.81;;;8.63;100.00
11542;BME280;5827;49.482;7.716;2023-04-08T03:46:04;99198.75;;;8.59;100.00
11542;BME280;5827;49.482;7.716;2023-04-08T03:48:07;99194.69;;;8.57;100.00
11542;BME280;5827;49.482;7.716;2023-04-08T03:50:09;99193.25;;;8.54;100.00
11542;BME280;5827;49.482;7.716;2023-04-08T03:52:10;99193.41;;;8.59;100.00
11542;BME280;5827;49.482;7.716;2023-04-08T03:54:13;99194.69;;;8.57;100.00
11542;BME280;5827;49.482;7.716;2023-04-08T03:56:15;99190.59;;;8.54;100.00
11542;BME280;5827;49.482;7.716;2023-04-08T03:58:16;99191.41;;;8.55;100.00
11542;BME280;5827;49.482;7.716;2023-04-08T04:00:18;99194.31;;;8.53;100.00
11542;BME280;5827;49.482;7.716;2023-04-08T04:02:19;99190.16;;;8.57;100.00
11542;BME280;5827;49.482;7.716;2023-04-08T04:04:21;99194.69;;;8.57;100.00
11542;BME280;5827;49.482;7.716;2023-04-08T04:06:22;99191.19;;;8.56;100.00
11542;BME280;5827;49.482;7.716;2023-04-08T04:08:24;99187.69;;;8.56;100.00
11542;BME280;5827;49.482;7.716;2023-04-08T04:10:27;99188.97;;;8.53;100.00
11542;BME280;5827;49.482;7.716;2023-04-08T04:12:28;99198.03;;;8.52;100.00
11542;BME280;5827;49.482;7.716;2023-04-08T04:14:29;99193.84;;;8.56;100.00
11542;BME280;5827;49.482;7.716;2023-04-08T04:16:31;99194.69;;;8.57;100.00
11542;BME280;5827;49.482;7.716;2023-04-08T04:18:32;99199.41;;;8.55;100.00
11542;BME280;5827;49.482;7.716;2023-04-08T04:20:34;99196.81;;;8.48;100.00
11542;BME280;5827;49.482;7.716;2023-04-08T04:22:37;99198.84;;;8.53;100.00
11542;BME280;5827;49.482;7.716;2023-04-08T04:24:38;99192.69;;;8.52;100.00
11542;BME280;5827;49.482;7.716;2023-04-08T04:26:41;99202.75;;;8.50;100.00
11542;BME280;5827;49.482;7.716;2023-04-08T04:28:43;99203.16;;;8.47;100.00
11542;BME280;5827;49.482;7.716;2023-04-08T04:30:44;99197.63;;;8.49;100.00
11542;BME280;5827;49.482;7.716;2023-04-08T04:32:46;99207.28;;;8.50;100.00
11542;BME280;5827;49.482;7.716;2023-04-08T04:34:47;99208.91;;;8.51;100.00
11542;BME280;5827;49.482;7.716;2023-04-08T04:36:49;99208.09;;;8.50;100.00
11542;BME280;5827;49.482;7.716;2023-04-08T04:38:50;99214.25;;;8.51;100.00
11542;BME280;5827;49.482;7.716;2023-04-08T04:40:52;99211.19;;;8.47;100.00
11542;BME280;5827;49.482;7.716;2023-04-08T04:42:55;99219.00;;;8.49;100.00
11542;BME280;5827;49.482;7.716;2023-04-08T04:44:56;99210.22;;;8.42;100.00
11542;BME280;5827;49.482;7.716;2023-04-08T04:46:58;99219.38;;;8.52;100.00
11542;BME280;5827;49.482;7.716;2023-04-08T04:48:59;99215.13;;;8.45;100.00
11542;BME280;5827;49.482;7.716;2023-04-08T04:51:01;99224.19;;;8.44;100.00
11542;BME280;5827;49.482;7.716;2023-04-08T04:53:03;99221.56;;;8.62;100.00
11542;BME280;5827;49.482;7.716;2023-04-08T04:55:05;99221.75;;;8.60;100.00
11542;BME280;5827;49.482;7.716;2023-04-08T04:57:07;99231.47;;;8.55;100.00
11542;BME280;5827;49.482;7.716;2023-04-08T04:59:11;99224.00;;;8.63;100.00
11542;BME280;5827;49.482;7.716;2023-04-08T05:01:13;99228.25;;;8.46;100.00
11542;BME280;5827;49.482;7.716;2023-04-08T05:03:14;99227.31;;;8.59;100.00
11542;BME280;5827;49.482;7.716;2023-04-08T05:05:16;99229.19;;;8.58;100.00
11542;BME280;5827;49.482;7.716;2023-04-08T05:07:17;99229.19;;;8.58;100.00
11542;BME280;5827;49.482;7.716;2023-04-08T05:09:20;99224.41;;;8.60;100.00
11542;BME280;5827;49.482;7.716;2023-04-08T05:11:21;99225.03;;;8.62;100.00
11542;BME280;5827;49.482;7.716;2023-04-08T05:13:23;99226.66;;;8.63;100.00
11542;BME280;5827;49.482;7.716;2023-04-08T05:15:26;99228.53;;;8.63;100.00
11542;BME280;5827;49.482;7.716;2023-04-08T05:17:27;99233.47;;;8.59;100.00
11542;BME280;5827;49.482;7.716;2023-04-08T05:19:28;99235.19;;;8.54;100.00
11542;BME280;5827;49.482;7.716;2023-04-08T05:21:30;99243.78;;;8.56;100.00
11542;BME280;5827;49.482;7.716;2023-04-08T05:23:33;99236.94;;;8.67;100.00
11542;BME280;5827;49.482;7.716;2023-04-08T05:25:35;99240.78;;;8.71;100.00
11542;BME280;5827;49.482;7.716;2023-04-08T05:27:36;99243.66;;;8.69;100.00
11542;BME280;5827;49.482;7.716;2023-04-08T05:29:39;99240.41;;;8.67;100.00
11542;BME280;5827;49.482;7.716;2023-04-08T05:31:42;99238.06;;;8.77;100.00
11542;BME280;5827;49.482;7.716;2023-04-08T05:33:44;99238.56;;;8.68;100.00
11542;BME280;5827;49.482;7.716;2023-04-08T05:35:45;99246.66;;;8.79;100.00
11542;BME280;5827;49.482;7.716;2023-04-08T05:37:47;99250.75;;;8.82;100.00
11542;BME280;5827;49.482;7.716;2023-04-08T05:39:48;99249.31;;;8.79;100.00
11542;BME280;5827;49.482;7.716;2023-04-08T05:41:49;99251.63;;;8.76;100.00
11542;BME280;5827;49.482;7.716;2023-04-08T05:43:51;99254.75;;;8.73;100.00
11542;BME280;5827;49.482;7.716;2023-04-08T05:45:52;99254.63;;;8.86;100.00
11542;BME280;5827;49.482;7.716;2023-04-08T05:47:55;99259.97;;;8.86;100.00
11542;BME280;5827;49.482;7.716;2023-04-08T05:49:57;99256.00;;;8.88;100.00
11542;BME280;5827;49.482;7.716;2023-04-08T05:51:58;99254.53;;;8.93;100.00
11542;BME280;5827;49.482;7.716;2023-04-08T05:54:00;99255.00;;;8.89;100.00
11542;BME280;5827;49.482;7.716;2023-04-08T05:56:01;99258.69;;;8.88;100.00
11542;BME280;5827;49.482;7.716;2023-04-08T05:58:03;99259.53;;;8.89;100.00
11542;BME280;5827;49.482;7.716;2023-04-08T06:00:05;99266.03;;;8.93;100.00
11542;BME280;5827;49.482;7.716;2023-04-08T06:02:08;99267.75;;;8.87;100.00
11542;BME280;5827;49.482;7.716;2023-04-08T06:04:11;99266.44;;;8.97;100.00
11542;BME280;5827;49.482;7.716;2023-04-08T06:06:12;99262.91;;;9.03;100.00
11542;BME280;5827;49.482;7.716;2023-04-08T06:08:14;99268.81;;;9.05;100.00
11542;BME280;5827;49.482;7.716;2023-04-08T06:10:16;99262.97;;;9.14;100.00
11542;BME280;5827;49.482;7.716;2023-04-08T06:12:17;99274.28;;;9.16;100.00
11542;BME280;5827;49.482;7.716;2023-04-08T06:14:19;99274.78;;;9.25;100.00
11542;BME280;5827;49.482;7.716;2023-04-08T06:16:20;99278.28;;;9.26;100.00
11542;BME280;5827;49.482;7.716;2023-04-08T06:18:22;99278.63;;;9.29;100.00
11542;BME280;5827;49.482;7.716;2023-04-08T06:20:24;99282.31;;;9.35;100.00
11542;BME280;5827;49.482;7.716;2023-04-08T06:22:26;99281.41;;;9.41;100.00
11542;BME280;5827;49.482;7.716;2023-04-08T06:24:28;99284.22;;;9.46;100.00
11542;BME280;5827;49.482;7.716;2023-04-08T06:26:30;99280.88;;;9.51;100.00
11542;BME280;5827;49.482;7.716;2023-04-08T06:28:32;99288.97;;;9.62;100.00
11542;BME280;5827;49.482;7.716;2023-04-08T06:30:34;99290.00;;;9.61;100.00
11542;BME280;5827;49.482;7.716;2023-04-08T06:32:35;99289.03;;;9.74;100.00
11542;BME280;5827;49.482;7.716;2023-04-08T06:34:37;99290.13;;;9.85;100.00
11542;BME280;5827;49.482;7.716;2023-04-08T06:36:39;99287.59;;;9.90;100.00
11542;BME280;5827;49.482;7.716;2023-04-08T06:38:41;99297.03;;;9.92;100.00
11542;BME280;5827;49.482;7.716;2023-04-08T06:40:42;99298.97;;;10.04;100.00
11542;BME280;5827;49.482;7.716;2023-04-08T06:42:44;99297.31;;;10.03;100.00
11542;BME280;5827;49.482;7.716;2023-04-08T06:44:45;99295.00;;;10.06;100.00
11542;BME280;5827;49.482;7.716;2023-04-08T06:46:47;99303.63;;;10.08;100.00
11542;BME280;5827;49.482;7.716;2023-04-08T06:48:48;99306.22;;;10.15;100.00
11542;BME280;5827;49.482;7.716;2023-04-08T06:50:50;99302.19;;;10.24;100.00
11542;BME280;5827;49.482;7.716;2023-04-08T06:52:52;99308.50;;;10.30;100.00
11542;BME280;5827;49.482;7.716;2023-04-08T06:54:54;99308.88;;;10.33;100.00
11542;BME280;5827;49.482;7.716;2023-04-08T06:56:56;99302.31;;;10.29;100.00
11542;BME280;5827;49.482;7.716;2023-04-08T06:58:57;99307.38;;;10.37;100.00
11542;BME280;5827;49.482;7.716;2023-04-08T07:00:59;99311.59;;;10.45;100.00
11542;BME280;5827;49.482;7.716;2023-04-08T07:03:02;99316.03;;;10.51;100.00
11542;BME280;5827;49.482;7.716;2023-04-08T07:05:05;99315.78;;;10.53;100.00
11542;BME280;5827;49.482;7.716;2023-04-08T07:07:07;99315.66;;;10.48;100.00
11542;BME280;5827;49.482;7.716;2023-04-08T07:09:10;99318.38;;;10.59;100.00
11542;BME280;5827;49.482;7.716;2023-04-08T07:11:11;99321.63;;;10.61;100.00
11542;BME280;5827;49.482;7.716;2023-04-08T07:13:13;99324.09;;;10.63;100.00
11542;BME280;5827;49.482;7.716;2023-04-08T07:15:14;99329.59;;;10.80;100.00
11542;BME280;5827;49.482;7.716;2023-04-08T07:17:16;99333.56;;;10.89;100.00
11542;BME280;5827;49.482;7.716;2023-04-08T07:19:17;99333.34;;;11.02;100.00
11542;BME280;5827;49.482;7.716;2023-04-08T07:21:19;99340.25;;;11.10;100.00
11542;BME280;5827;49.482;7.716;2023-04-08T07:23:21;99346.50;;;11.04;100.00
11542;BME280;5827;49.482;7.716;2023-04-08T07:25:23;99334.63;;;11.11;100.00
11542;BME280;5827;49.482;7.716;2023-04-08T07:27:25;99344.19;;;11.07;100.00
11542;BME280;5827;49.482;7.716;2023-04-08T07:29:26;99337.44;;;11.16;100.00
11542;BME280;5827;49.482;7.716;2023-04-08T07:31:28;99339.66;;;11.19;100.00
11542;BME280;5827;49.482;7.716;2023-04-08T07:33:29;99332.19;;;11.22;100.00
11542;BME280;5827;49.482;7.716;2023-04-08T07:35:31;99340.13;;;11.28;100.00
11542;BME280;5827;49.482;7.716;2023-04-08T07:37:33;99344.06;;;11.02;100.00
11542;BME280;5827;49.482;7.716;2023-04-08T07:39:35;99340.94;;;11.29;100.00
11542;BME280;5827;49.482;7.716;2023-04-08T07:41:38;99341.50;;;11.31;100.00
11542;BME280;5827;49.482;7.716;2023-04-08T07:43:39;99346.53;;;11.51;100.00
11542;BME280;5827;49.482;7.716;2023-04-08T07:45:40;99350.13;;;11.56;100.00
11542;BME280;5827;49.482;7.716;2023-04-08T07:47:43;99355.03;;;11.59;100.00
11542;BME280;5827;49.482;7.716;2023-04-08T07:49:45;99356.31;;;10.98;99.19
11542;BME280;5827;49.482;7.716;2023-04-08T07:51:47;99357.59;;;11.31;100.00
11542;BME280;5827;49.482;7.716;2023-04-08T07:53:48;99357.69;;;11.71;99.98
11542;BME280;5827;49.482;7.716;2023-04-08T07:55:50;99360.97;;;11.85;99.25
11542;BME280;5827;49.482;7.716;2023-04-08T07:57:53;99360.47;;;12.00;99.25
11542;BME280;5827;49.482;7.716;2023-04-08T07:59:54;99366.09;;;11.86;96.90
11542;BME280;5827;49.482;7.716;2023-04-08T08:01:56;99371.38;;;11.34;98.37
11542;BME280;5827;49.482;7.716;2023-04-08T08:03:57;99369.16;;;11.43;98.19
11542;BME280;5827;49.482;7.716;2023-04-08T08:05:59;99377.09;;;11.61;96.82
11542;BME280;5827;49.482;7.716;2023-04-08T08:08:01;99372.78;;;11.37;97.95
11542;BME280;5827;49.482;7.716;2023-04-08T08:10:03;99376.03;;;11.62;97.58
11542;BME280;5827;49.482;7.716;2023-04-08T08:12:05;99374.63;;;11.48;96.10
11542;BME280;5827;49.482;7.716;2023-04-08T08:14:08;99376.72;;;11.69;96.56
11542;BME280;5827;49.482;7.716;2023-04-08T08:16:10;99373.56;;;11.96;96.95
11542;BME280;5827;49.482;7.716;2023-04-08T08:18:12;99378.34;;;12.06;94.98
11542;BME280;5827;49.482;7.716;2023-04-08T08:20:13;99388.06;;;11.48;92.42
11542;BME280;5827;49.482;7.716;2023-04-08T08:22:16;99385.34;;;11.71;93.90
11542;BME280;5827;49.482;7.716;2023-04-08T08:24:17;99388.16;;;11.88;92.78
11542;BME280;5827;49.482;7.716;2023-04-08T08:26:19;99393.88;;;11.57;89.25
11542;BME280;5827;49.482;7.716;2023-04-08T08:28:20;99382.81;;;11.53;92.02
11542;BME280;5827;49.482;7.716;2023-04-08T08:30:23;99384.44;;;11.66;92.17
11542;BME280;5827;49.482;7.716;2023-04-08T08:32:25;99392.59;;;11.94;92.28
11542;BME280;5827;49.482;7.716;2023-04-08T08:34:27;99394.94;;;11.79;91.29
11542;BME280;5827;49.482;7.716;2023-04-08T08:36:28;99398.56;;;11.73;91.69
11542;BME280;5827;49.482;7.716;2023-04-08T08:38:30;99394.94;;;11.56;92.39
11542;BME280;5827;49.482;7.716;2023-04-08T08:40:32;99395.41;;;11.88;93.28
11542;BME280;5827;49.482;7.716;2023-04-08T08:42:33;99398.06;;;11.76;93.08
11542;BME280;5827;49.482;7.716;2023-04-08T08:44:35;99396.47;;;11.87;93.20
11542;BME280;5827;49.482;7.716;2023-04-08T08:46:41;99405.50;;;12.21;90.19
11542;BME280;5827;49.482;7.716;2023-04-08T08:48:44;99404.59;;;12.44;88.52
11542;BME280;5827;49.482;7.716;2023-04-08T08:50:45;99415.78;;;12.24;87.09
11542;BME280;5827;49.482;7.716;2023-04-08T08:52:48;99417.69;;;12.40;84.94
11542;BME280;5827;49.482;7.716;2023-04-08T08:54:56;99423.50;;;12.09;86.03
11542;BME280;5827;49.482;7.716;2023-04-08T08:56:58;99421.75;;;12.14;83.70
11542;BME280;5827;49.482;7.716;2023-04-08T08:58:59;99417.03;;;12.33;86.07
11542;BME280;5827;49.482;7.716;2023-04-08T09:01:01;99422.31;;;12.57;83.79
11542;BME280;5827;49.482;7.716;2023-04-08T09:03:15;99420.91;;;12.54;84.17
11542;BME280;5827;49.482;7.716;2023-04-08T09:05:16;99422.53;;;12.55;84.12
11542;BME280;5827;49.482;7.716;2023-04-08T09:07:23;99420.28;;;12.64;84.23
11542;BME280;5827;49.482;7.716;2023-04-08T09:09:24;99422.00;;;12.01;85.69
11542;BME280;5827;49.482;7.716;2023-04-08T09:11:26;99421.41;;;12.51;84.44
11542;BME280;5827;49.482;7.716;2023-04-08T09:13:34;99426.06;;;12.56;82.31
11542;BME280;5827;49.482;7.716;2023-04-08T09:15:59;99418.19;;;12.66;83.66
11542;BME280;5827;49.482;7.716;2023-04-08T09:18:01;99422.63;;;12.89;85.06
11542;BME280;5827;49.482;7.716;2023-04-08T09:20:06;99410.16;;;12.54;85.40
11542;BME280;5827;49.482;7.716;2023-04-08T09:22:10;99401.28;;;12.54;86.99
11542;BME280;5827;49.482;7.716;2023-04-08T09:24:26;99411.19;;;13.27;84.95
11542;BME280;5827;49.482;7.716;2023-04-08T09:26:28;99420.31;;;13.26;82.45
11542;BME280;5827;49.482;7.716;2023-04-08T09:28:30;99413.84;;;12.93;84.62
11542;BME280;5827;49.482;7.716;2023-04-08T09:30:31;99416.13;;;13.02;82.82
11542;BME280;5827;49.482;7.716;2023-04-08T09:32:46;99410.81;;;12.90;84.54
11542;BME280;5827;49.482;7.716;2023-04-08T09:34:48;99417.75;;;13.03;81.50
11542;BME280;5827;49.482;7.716;2023-04-08T09:36:51;99413.31;;;13.25;82.37
11542;BME280;5827;49.482;7.716;2023-04-08T09:38:54;99417.38;;;13.44;79.65
11542;BME280;5827;49.482;7.716;2023-04-08T09:40:55;99419.34;;;13.49;80.78
11542;BME280;5827;49.482;7.716;2023-04-08T09:42:59;99421.56;;;13.52;79.41
11542;BME280;5827;49.482;7.716;2023-04-08T09:45:04;99423.44;;;13.52;79.43
11542;BME280;5827;49.482;7.716;2023-04-08T09:47:10;99420.06;;;13.61;79.00
11542;BME280;5827;49.482;7.716;2023-04-08T09:49:20;99417.63;;;13.26;79.99
11542;BME280;5827;49.482;7.716;2023-04-08T09:51:28;99432.06;;;13.54;77.19
11542;BME280;5827;49.482;7.716;2023-04-08T09:53:36;99439.47;;;13.63;73.01
11542;BME280;5827;49.482;7.716;2023-04-08T09:55:38;99453.00;;;13.85;72.62
11542;BME280;5827;49.482;7.716;2023-04-08T09:57:43;99463.56;;;13.70;69.51
11542;BME280;5827;49.482;7.716;2023-04-08T09:59:50;99444.59;;;13.82;70.93
11542;BME280;5827;49.482;7.716;2023-04-08T10:01:54;99442.97;;;13.64;73.84
11542;BME280;5827;49.482;7.716;2023-04-08T10:03:57;99446.59;;;13.53;74.03
11542;BME280;5827;49.482;7.716;2023-04-08T10:06:00;99449.28;;;13.53;73.57
11542;BME280;5827;49.482;7.716;2023-04-08T10:08:02;99444.06;;;13.29;76.50
11542;BME280;5827;49.482;7.716;2023-04-08T10:10:08;99447.97;;;13.55;71.96
11542;BME280;5827;49.482;7.716;2023-04-08T10:12:10;99458.06;;;13.65;70.14
11542;BME280;5827;49.482;7.716;2023-04-08T10:14:12;99458.25;;;13.41;70.07
11542;BME280;5827;49.482;7.716;2023-04-08T10:16:18;99466.53;;;13.90;66.88
11542;BME280;5827;49.482;7.716;2023-04-08T10:18:29;99449.00;;;14.10;67.53
11542;BME280;5827;49.482;7.716;2023-04-08T10:20:42;99459.41;;;14.01;65.09
11542;BME280;5827;49.482;7.716;2023-04-08T10:22:45;99459.06;;;14.36;65.17
11542;BME280;5827;49.482;7.716;2023-04-08T10:27:38;99459.78;;;14.48;66.75
11542;BME280;5827;49.482;7.716;2023-04-08T10:29:40;99444.59;;;13.65;69.29
11542;BME280;5827;49.482;7.716;2023-04-08T10:31:42;99459.47;;;13.51;66.42
11542;BME280;5827;49.482;7.716;2023-04-08T10:33:43;99455.09;;;14.00;65.32
11542;BME280;5827;49.482;7.716;2023-04-08T10:35:47;99454.31;;;13.32;65.37
11542;BME280;5827;49.482;7.716;2023-04-08T10:37:48;99455.31;;;13.26;67.36
11542;BME280;5827;49.482;7.716;2023-04-08T10:39:53;99462.22;;;13.56;63.33
11542;BME280;5827;49.482;7.716;2023-04-08T10:41:54;99459.47;;;13.67;63.61
11542;BME280;5827;49.482;7.716;2023-04-08T10:43:58;99464.66;;;13.74;62.48
11542;BME280;5827;49.482;7.716;2023-04-08T10:45:59;99462.97;;;13.68;63.20
11542;BME280;5827;49.482;7.716;2023-04-08T10:48:14;99460.53;;;13.66;64.85
11542;BME280;5827;49.482;7.716;2023-04-08T10:50:18;99451.72;;;13.54;65.19
11542;BME280;5827;49.482;7.716;2023-04-08T10:52:20;99447.38;;;14.09;65.95
11542;BME280;5827;49.482;7.716;2023-04-08T10:54:22;99456.28;;;13.54;64.84
11542;BME280;5827;49.482;7.716;2023-04-08T10:56:24;99447.97;;;13.55;66.26
11542;BME280;5827;49.482;7.716;2023-04-08T10:58:26;99449.97;;;13.82;68.74
11542;BME280;5827;49.482;7.716;2023-04-08T11:00:34;99457.72;;;13.78;65.46